Thomson Spirit — 9HA2336 — position and weather

sailwx.info

Track history (hours):
 
Tides and Currents Weather Stations Pressure Air Temp Water Temp Dewpoint Dewpoint Depression Visibility Wind Speed Wind Dir Waves Ship Positions

Thomson Spirit

Last reported at 2017-Aug-15 21:32 UTC. Time now 2017-Aug-17 01:54 UTC.
Position N 44°04' E 014°29'.

Length 214 m; draft 8 m.

Type: Passenger vessel. MMSI: 248368000.

Date/timePositionNaut miles runAvg speedWind from/ knotsBaromVisibWave heightAir tempDewpointWater temp
2017-Aug-15 21:32N 44°04' E 014°29'0 9.6
2017-Aug-15 21:30N 44°04' E 014°29'5 9.6
2017-Aug-15 21:00N 44°09' E 014°29'5 9.5
2017-Aug-15 20:30N 44°14' E 014°29'11 0.6
2017-Aug-15 01:16N 44°16' E 014°14'1 5.1
2017-Aug-15 01:01N 44°15' E 014°13'2 4.9
2017-Aug-15 00:31N 44°14' E 014°09'31 5.6
2017-Aug-14 18:55N 44°40' E 013°44'3 5.4
2017-Aug-14 18:26N 44°43' E 013°44'10 5.6
2017-Aug-14 16:44N 44°52' E 013°45'2 5.9
2017-Aug-14 16:27N 44°53' E 013°47'1 0.1
2017-Aug-14 04:32N 44°53' E 013°48'0 8.1
2017-Aug-14 04:30N 44°53' E 013°48'5 9.8
2017-Aug-14 04:00N 44°54' E 013°41'4 7.3
2017-Aug-14 03:30N 44°56' E 013°37'3 5.6
2017-Aug-14 03:00N 44°57' E 013°33'3 5.7
2017-Aug-14 02:30N 44°58' E 013°30'3 6.1
2017-Aug-14 02:00N 44°60' E 013°26'3 6.3
2017-Aug-14 01:30N 45°01' E 013°22'3 6.1
2017-Aug-14 01:00N 45°03' E 013°18'3 6.1
2017-Aug-14 00:30N 45°04' E 013°14'3 6.1
2017-Aug-14 00:00N 45°06' E 013°11'3 6.1
2017-Aug-13 23:30N 45°07' E 013°07'3 5.6
2017-Aug-13 23:00N 45°09' E 013°04'3 5.7
2017-Aug-13 22:30N 45°11' E 013°03'611.5
2017-Aug-13 22:00N 45°17' E 013°01'4 7.5
2017-Aug-13 21:30N 45°20' E 012°57'3 6.2
2017-Aug-13 21:00N 45°21' E 012°53'2 4.7
2017-Aug-13 20:30N 45°21' E 012°50'3 5.9
2017-Aug-13 20:00N 45°21' E 012°46'3 5.9
2017-Aug-13 19:30N 45°21' E 012°41'3 6.0
2017-Aug-13 19:00N 45°22' E 012°37'3 6.0
2017-Aug-13 18:30N 45°22' E 012°33'3 6.0
2017-Aug-13 18:00N 45°24' E 012°29'3 6.8
2017-Aug-13 17:30N 45°26' E 012°25'3 5.9
2017-Aug-13 17:00N 45°26' E 012°21'2 3.0
2017-Aug-13 16:29N 45°26' E 012°19'0 0.0
2017-Aug-13 15:59N 45°26' E 012°19'0 0.0
2017-Aug-13 15:29N 45°26' E 012°19'0 0.0
2017-Aug-13 14:59N 45°26' E 012°19'0 0.0
2017-Aug-13 14:29N 45°26' E 012°19'0 0.0
2017-Aug-13 13:58N 45°26' E 012°19'0 0.0
2017-Aug-13 13:28N 45°26' E 012°19'0 0.0
2017-Aug-13 12:59N 45°26' E 012°19'0 0.0
2017-Aug-13 12:29N 45°26' E 012°19'0 0.0
2017-Aug-13 11:59N 45°26' E 012°19'0 0.0
2017-Aug-13 11:29N 45°26' E 012°19'0 0.0
2017-Aug-13 10:59N 45°26' E 012°19'0 0.0
2017-Aug-13 10:29N 45°26' E 012°19'0 0.0
2017-Aug-13 09:59N 45°26' E 012°19'0 0.0
2017-Aug-13 09:29N 45°26' E 012°19'0 0.0
2017-Aug-13 08:59N 45°26' E 012°19'0 0.0
2017-Aug-13 08:29N 45°26' E 012°19'0 0.0
2017-Aug-13 07:58N 45°26' E 012°19'0 0.0
2017-Aug-13 07:29N 45°26' E 012°19'0 0.0
2017-Aug-13 06:59N 45°26' E 012°19'0 0.0
2017-Aug-13 06:30N 45°26' E 012°19'0 0.0
2017-Aug-13 06:01N 45°26' E 012°19'0 0.9
2017-Aug-13 05:31N 45°26' E 012°19'3 5.5
2017-Aug-13 05:01N 45°25' E 012°22'4 7.9
2017-Aug-13 04:31N 45°24' E 012°28'3 6.6
2017-Aug-13 04:01N 45°23' E 012°32'3 6.2
2017-Aug-13 03:30N 45°22' E 012°36'4 7.1
2017-Aug-13 02:59N 45°23' E 012°41'3 7.1
2017-Aug-13 02:30N 45°24' E 012°46'4 6.5
2017-Aug-13 01:55N 45°26' E 012°51'3 6.4
2017-Aug-13 01:26N 45°26' E 012°55'3 6.5
2017-Aug-13 00:59N 45°27' E 012°59'4 6.9
2017-Aug-13 00:27N 45°29' E 013°04'6 7.2
2017-Aug-12 23:39N 45°31' E 013°11'1 7.1
2017-Aug-12 23:31N 45°32' E 013°12'4 7.1
2017-Aug-12 23:01N 45°33' E 013°17'4 7.2
2017-Aug-12 22:30N 45°35' E 013°22'4 7.2
2017-Aug-12 22:01N 45°36' E 013°26'4 7.0
2017-Aug-12 21:30N 45°37' E 013°31'3 6.9
2017-Aug-12 21:01N 45°37' E 013°36'4 7.1
2017-Aug-12 20:31N 45°35' E 013°40'3 6.7
2017-Aug-12 20:01N 45°33' E 013°44'0 0.3
2017-Aug-12 19:19N 45°33' E 013°44'0 0.0
2017-Aug-12 18:58N 45°33' E 013°44'0 0.0
2017-Aug-12 18:28N 45°33' E 013°44'0 0.0
2017-Aug-12 17:57N 45°33' E 013°44'0 0.0
2017-Aug-12 17:22N 45°33' E 013°44'0 0.0
2017-Aug-12 16:58N 45°33' E 013°44'0 0.0
2017-Aug-12 16:27N 45°33' E 013°44'0 0.0
2017-Aug-12 15:58N 45°33' E 013°44'0 0.0
2017-Aug-12 15:20N 45°33' E 013°44'0 0.0
2017-Aug-12 14:58N 45°33' E 013°44'0 0.0
2017-Aug-12 14:27N 45°33' E 013°44'0 0.0
2017-Aug-12 13:58N 45°33' E 013°44'0 0.0
2017-Aug-12 13:28N 45°33' E 013°44'0 0.0
2017-Aug-12 12:57N 45°33' E 013°44'0 0.0
2017-Aug-12 12:27N 45°33' E 013°44'0 0.0
2017-Aug-12 11:52N 45°33' E 013°44'0 0.0
2017-Aug-12 11:28N 45°33' E 013°44'0 0.0
2017-Aug-12 10:57N 45°33' E 013°44'0 0.0
2017-Aug-12 10:27N 45°33' E 013°44'0 0.0
2017-Aug-12 09:58N 45°33' E 013°44'0 0.0
2017-Aug-12 09:22N 45°33' E 013°44'0 0.0
2017-Aug-12 08:58N 45°33' E 013°44'0 0.0
2017-Aug-12 08:28N 45°33' E 013°44'0 0.0
2017-Aug-12 07:56N 45°33' E 013°44'0 0.0
2017-Aug-12 07:26N 45°33' E 013°44'0 0.0
2017-Aug-12 06:58N 45°33' E 013°44'0 0.0
2017-Aug-12 06:20N 45°33' E 013°44'0 0.0
2017-Aug-12 05:58N 45°33' E 013°44'0 0.0
2017-Aug-12 05:31N 45°33' E 013°44'1 2.6
2017-Aug-12 05:01N 45°34' E 013°42'5 9.6
2017-Aug-12 04:30N 45°34' E 013°35'5 9.6
2017-Aug-12 04:01N 45°33' E 013°29'510.1
2017-Aug-12 03:31N 45°30' E 013°23'510.3
2017-Aug-12 03:01N 45°27' E 013°17'5 9.8
2017-Aug-12 02:30N 45°24' E 013°12'612.4
2017-Aug-12 02:00N 45°18' E 013°14'714.9
2017-Aug-12 01:30N 45°10' E 013°16'714.8
2017-Aug-12 01:00N 45°04' E 013°20'714.6
2017-Aug-12 00:30N 44°57' E 013°23'714.4
2017-Aug-12 00:00N 44°51' E 013°29'714.2
2017-Aug-11 23:30N 44°45' E 013°34'714.2
2017-Aug-11 23:00N 44°39' E 013°40'914.2
2017-Aug-11 22:21N 44°31' E 013°47'714.1
2017-Aug-11 21:51N 44°25' E 013°52'  
2017-Aug-08 23:33N 41°15' E 018°55'113.9
2017-Aug-08 23:27N 41°13' E 018°55'613.8
2017-Aug-08 23:00N 41°07' E 018°56'713.8
2017-Aug-08 22:30N 41°01' E 018°59'713.8
2017-Aug-08 22:00N 40°54' E 019°01'713.8
2017-Aug-08 21:30N 40°47' E 019°03'713.8
2017-Aug-08 21:00N 40°41' E 019°05'713.4
2017-Aug-08 20:30N 40°34' E 019°07'713.2
2017-Aug-08 19:59N 40°27' E 019°09'613.2
2017-Aug-08 19:30N 40°22' E 019°13'80 4.6
2017-Aug-08 02:10N 39°17' E 020°14'213.2
2017-Aug-08 02:00N 39°15' E 020°16'913.7
2017-Aug-08 01:21N 39°07' E 020°19'514.7
2017-Aug-08 01:00N 39°02' E 020°19'714.5
2017-Aug-08 00:30N 38°54' E 020°18'714.1
2017-Aug-08 00:00N 38°47' E 020°16'4412.8
2017-Aug-07 20:35N 38°04' E 020°22'113.1
2017-Aug-07 20:30N 38°03' E 020°23'1212.6
2017-Aug-07 19:31N 37°52' E 020°31'011.2
2017-Aug-07 19:30N 37°52' E 020°31'1210.9
2017-Aug-07 18:22N 37°42' E 020°40'  
Track history (hours):
 
Tides and Currents Weather Stations Pressure Air Temp Water Temp Dewpoint Dewpoint Depression Visibility Wind Speed Wind Dir Waves Ship Positions

Thomson Spirit

Last reported at 2017-Aug-15 21:32 UTC. Time now 2017-Aug-17 01:54 UTC.
Position N 44°04' E 014°29'.

Length 214 m; draft 8 m.

Type: Passenger vessel. MMSI: 248368000.

Date/timePositionNaut miles runAvg speedWind from/ knotsBaromVisibWave heightAir tempDewpointWater temp
2017-Aug-15 21:32N 44°04' E 014°29'0 9.6
2017-Aug-15 21:30N 44°04' E 014°29'5 9.6
2017-Aug-15 21:00N 44°09' E 014°29'5 9.5
2017-Aug-15 20:30N 44°14' E 014°29'11 0.6
2017-Aug-15 01:16N 44°16' E 014°14'1 5.1
2017-Aug-15 01:01N 44°15' E 014°13'2 4.9
2017-Aug-15 00:31N 44°14' E 014°09'31 5.6
2017-Aug-14 18:55N 44°40' E 013°44'3 5.4
2017-Aug-14 18:26N 44°43' E 013°44'10 5.6
2017-Aug-14 16:44N 44°52' E 013°45'2 5.9
2017-Aug-14 16:27N 44°53' E 013°47'1 0.1
2017-Aug-14 04:32N 44°53' E 013°48'0 8.1
2017-Aug-14 04:30N 44°53' E 013°48'5 9.8
2017-Aug-14 04:00N 44°54' E 013°41'4 7.3
2017-Aug-14 03:30N 44°56' E 013°37'3 5.6
2017-Aug-14 03:00N 44°57' E 013°33'3 5.7
2017-Aug-14 02:30N 44°58' E 013°30'3 6.1
2017-Aug-14 02:00N 44°60' E 013°26'3 6.3
2017-Aug-14 01:30N 45°01' E 013°22'3 6.1
2017-Aug-14 01:00N 45°03' E 013°18'3 6.1
2017-Aug-14 00:30N 45°04' E 013°14'3 6.1
2017-Aug-14 00:00N 45°06' E 013°11'3 6.1
2017-Aug-13 23:30N 45°07' E 013°07'3 5.6
2017-Aug-13 23:00N 45°09' E 013°04'3 5.7
2017-Aug-13 22:30N 45°11' E 013°03'611.5
2017-Aug-13 22:00N 45°17' E 013°01'4 7.5
2017-Aug-13 21:30N 45°20' E 012°57'3 6.2
2017-Aug-13 21:00N 45°21' E 012°53'2 4.7
2017-Aug-13 20:30N 45°21' E 012°50'3 5.9
2017-Aug-13 20:00N 45°21' E 012°46'3 5.9
2017-Aug-13 19:30N 45°21' E 012°41'3 6.0
2017-Aug-13 19:00N 45°22' E 012°37'3 6.0
2017-Aug-13 18:30N 45°22' E 012°33'3 6.0
2017-Aug-13 18:00N 45°24' E 012°29'3 6.8
2017-Aug-13 17:30N 45°26' E 012°25'3 5.9
2017-Aug-13 17:00N 45°26' E 012°21'2 3.0
2017-Aug-13 16:29N 45°26' E 012°19'0 0.0
2017-Aug-13 15:59N 45°26' E 012°19'0 0.0
2017-Aug-13 15:29N 45°26' E 012°19'0 0.0
2017-Aug-13 14:59N 45°26' E 012°19'0 0.0
2017-Aug-13 14:29N 45°26' E 012°19'0 0.0
2017-Aug-13 13:58N 45°26' E 012°19'0 0.0
2017-Aug-13 13:28N 45°26' E 012°19'0 0.0
2017-Aug-13 12:59N 45°26' E 012°19'0 0.0
2017-Aug-13 12:29N 45°26' E 012°19'0 0.0
2017-Aug-13 11:59N 45°26' E 012°19'0 0.0
2017-Aug-13 11:29N 45°26' E 012°19'0 0.0
2017-Aug-13 10:59N 45°26' E 012°19'0 0.0
2017-Aug-13 10:29N 45°26' E 012°19'0 0.0
2017-Aug-13 09:59N 45°26' E 012°19'0 0.0
2017-Aug-13 09:29N 45°26' E 012°19'0 0.0
2017-Aug-13 08:59N 45°26' E 012°19'0 0.0
2017-Aug-13 08:29N 45°26' E 012°19'0 0.0
2017-Aug-13 07:58N 45°26' E 012°19'0 0.0
2017-Aug-13 07:29N 45°26' E 012°19'0 0.0
2017-Aug-13 06:59N 45°26' E 012°19'0 0.0
2017-Aug-13 06:30N 45°26' E 012°19'0 0.0
2017-Aug-13 06:01N 45°26' E 012°19'0 0.9
2017-Aug-13 05:31N 45°26' E 012°19'3 5.5
2017-Aug-13 05:01N 45°25' E 012°22'4 7.9
2017-Aug-13 04:31N 45°24' E 012°28'3 6.6
2017-Aug-13 04:01N 45°23' E 012°32'3 6.2
2017-Aug-13 03:30N 45°22' E 012°36'4 7.1
2017-Aug-13 02:59N 45°23' E 012°41'3 7.1
2017-Aug-13 02:30N 45°24' E 012°46'4 6.5
2017-Aug-13 01:55N 45°26' E 012°51'3 6.4
2017-Aug-13 01:26N 45°26' E 012°55'3 6.5
2017-Aug-13 00:59N 45°27' E 012°59'4 6.9
2017-Aug-13 00:27N 45°29' E 013°04'6 7.2
2017-Aug-12 23:39N 45°31' E 013°11'1 7.1
2017-Aug-12 23:31N 45°32' E 013°12'4 7.1
2017-Aug-12 23:01N 45°33' E 013°17'4 7.2
2017-Aug-12 22:30N 45°35' E 013°22'4 7.2
2017-Aug-12 22:01N 45°36' E 013°26'4 7.0
2017-Aug-12 21:30N 45°37' E 013°31'3 6.9
2017-Aug-12 21:01N 45°37' E 013°36'4 7.1
2017-Aug-12 20:31N 45°35' E 013°40'3 6.7
2017-Aug-12 20:01N 45°33' E 013°44'0 0.3
2017-Aug-12 19:19N 45°33' E 013°44'0 0.0
2017-Aug-12 18:58N 45°33' E 013°44'0 0.0
2017-Aug-12 18:28N 45°33' E 013°44'0 0.0
2017-Aug-12 17:57N 45°33' E 013°44'0 0.0
2017-Aug-12 17:22N 45°33' E 013°44'0 0.0
2017-Aug-12 16:58N 45°33' E 013°44'0 0.0
2017-Aug-12 16:27N 45°33' E 013°44'0 0.0
2017-Aug-12 15:58N 45°33' E 013°44'0 0.0
2017-Aug-12 15:20N 45°33' E 013°44'0 0.0
2017-Aug-12 14:58N 45°33' E 013°44'0 0.0
2017-Aug-12 14:27N 45°33' E 013°44'0 0.0
2017-Aug-12 13:58N 45°33' E 013°44'0 0.0
2017-Aug-12 13:28N 45°33' E 013°44'0 0.0
2017-Aug-12 12:57N 45°33' E 013°44'0 0.0
2017-Aug-12 12:27N 45°33' E 013°44'0 0.0
2017-Aug-12 11:52N 45°33' E 013°44'0 0.0
2017-Aug-12 11:28N 45°33' E 013°44'0 0.0
2017-Aug-12 10:57N 45°33' E 013°44'0 0.0
2017-Aug-12 10:27N 45°33' E 013°44'0 0.0
2017-Aug-12 09:58N 45°33' E 013°44'0 0.0
2017-Aug-12 09:22N 45°33' E 013°44'0 0.0
2017-Aug-12 08:58N 45°33' E 013°44'0 0.0
2017-Aug-12 08:28N 45°33' E 013°44'0 0.0
2017-Aug-12 07:56N 45°33' E 013°44'0 0.0
2017-Aug-12 07:26N 45°33' E 013°44'0 0.0
2017-Aug-12 06:58N 45°33' E 013°44'0 0.0
2017-Aug-12 06:20N 45°33' E 013°44'0 0.0
2017-Aug-12 05:58N 45°33' E 013°44'0 0.0
2017-Aug-12 05:31N 45°33' E 013°44'1 2.6
2017-Aug-12 05:01N 45°34' E 013°42'5 9.6
2017-Aug-12 04:30N 45°34' E 013°35'5 9.6
2017-Aug-12 04:01N 45°33' E 013°29'510.1
2017-Aug-12 03:31N 45°30' E 013°23'510.3
2017-Aug-12 03:01N 45°27' E 013°17'5 9.8
2017-Aug-12 02:30N 45°24' E 013°12'612.4
2017-Aug-12 02:00N 45°18' E 013°14'714.9
2017-Aug-12 01:30N 45°10' E 013°16'714.8
2017-Aug-12 01:00N 45°04' E 013°20'714.6
2017-Aug-12 00:30N 44°57' E 013°23'714.4
2017-Aug-12 00:00N 44°51' E 013°29'714.2
2017-Aug-11 23:30N 44°45' E 013°34'714.2
2017-Aug-11 23:00N 44°39' E 013°40'914.2
2017-Aug-11 22:21N 44°31' E 013°47'714.1
2017-Aug-11 21:51N 44°25' E 013°52'  
2017-Aug-08 23:33N 41°15' E 018°55'113.9
2017-Aug-08 23:27N 41°13' E 018°55'613.8
2017-Aug-08 23:00N 41°07' E 018°56'713.8
2017-Aug-08 22:30N 41°01' E 018°59'713.8
2017-Aug-08 22:00N 40°54' E 019°01'713.8
2017-Aug-08 21:30N 40°47' E 019°03'713.8
2017-Aug-08 21:00N 40°41' E 019°05'713.4
2017-Aug-08 20:30N 40°34' E 019°07'713.2
2017-Aug-08 19:59N 40°27' E 019°09'613.2
2017-Aug-08 19:30N 40°22' E 019°13'80 4.6
2017-Aug-08 02:10N 39°17' E 020°14'213.2
2017-Aug-08 02:00N 39°15' E 020°16'913.7
2017-Aug-08 01:21N 39°07' E 020°19'514.7
2017-Aug-08 01:00N 39°02' E 020°19'714.5
2017-Aug-08 00:30N 38°54' E 020°18'714.1
2017-Aug-08 00:00N 38°47' E 020°16'4412.8
2017-Aug-07 20:35N 38°04' E 020°22'113.1
2017-Aug-07 20:30N 38°03' E 020°23'1212.6
2017-Aug-07 19:31N 37°52' E 020°31'011.2
2017-Aug-07 19:30N 37°52' E 020°31'1210.9
2017-Aug-07 18:22N 37°42' E 020°40'  

Dump ship's entire track history